Geneva, Alabama
Current Conditions -  °F | °C
As of 1:35 AM on Sunday 23 Nov 2014 (Local Time) from KEDN Reporting Station
Drizzle Drizzle  
Wind Chill: 59°   Ceiling: 600
Heat Index: 59°   Visibility: 10mi
Dew Point: 59°   Wind: 13mph
Humidity: 100%   Direction: 90°E
Pressure: 29.97"   Gusts: 17mph
Location:  31.03°N, 85.86°W
Report Text: KEDN 230735Z AUTO 09011G15KT 10SM -DZ OVC006 15/15 A2997 RMK AO2 P0002
Loading
Personal Weather Stations






























Interactive Weather Map New forecast layout! Learn more

10-Day Weather Forecast

Advertisements
Track Severe Weather on mobile